createdAt,value
2017-10-04T00:03:33.670Z,10.80
2017-10-04T00:08:36.688Z,10.53
2017-10-04T00:13:38.653Z,7.80
2017-10-04T00:18:40.507Z,6.93
2017-10-04T00:23:42.996Z,9.60
2017-10-04T00:28:45.517Z,7.00
2017-10-04T00:33:47.392Z,14.10
2017-10-04T00:38:50.457Z,7.93
2017-10-04T00:43:53.544Z,10.07
2017-10-04T00:48:55.482Z,8.20
2017-10-04T00:53:57.336Z,8.10
2017-10-04T00:58:59.979Z,12.50
2017-10-04T01:04:02.753Z,9.23
2017-10-04T01:09:07.498Z,8.07
2017-10-04T01:14:10.040Z,10.30
2017-10-04T01:19:11.906Z,6.90
2017-10-04T01:24:13.712Z,11.40
2017-10-04T01:29:15.828Z,8.70
2017-10-04T01:34:17.676Z,11.50
2017-10-04T01:39:20.605Z,10.30
2017-10-04T01:44:22.448Z,8.97
2017-10-04T01:49:24.315Z,12.17
2017-10-04T01:54:26.238Z,9.27
2017-10-04T01:59:28.072Z,16.67
2017-10-04T02:04:29.967Z,8.10
2017-10-04T02:09:31.869Z,16.97
2017-10-04T02:14:33.748Z,12.40
2017-10-04T02:19:35.624Z,18.73
2017-10-04T02:24:37.503Z,11.83
2017-10-04T02:29:40.300Z,9.77
2017-10-04T02:34:43.817Z,9.40
2017-10-04T02:40:00.494Z,16.33
2017-10-04T02:45:19.981Z,13.17
2017-10-04T02:50:39.434Z,10.53
2017-10-04T02:55:58.816Z,12.50
2017-10-04T03:01:18.264Z,15.10
2017-10-04T03:06:38.498Z,9.30
2017-10-04T03:11:58.899Z,8.80
2017-10-04T03:17:18.387Z,11.70
2017-10-04T03:22:23.052Z,11.13
2017-10-04T03:27:24.904Z,15.47
2017-10-04T03:32:27.708Z,15.67
2017-10-04T03:37:29.504Z,11.83
2017-10-04T03:42:31.379Z,21.83
2017-10-04T03:47:33.462Z,15.63
2017-10-04T03:52:35.955Z,16.90
2017-10-04T03:57:37.749Z,13.80
2017-10-04T04:02:41.142Z,14.70
2017-10-04T04:07:44.043Z,14.90
2017-10-04T04:12:47.204Z,16.90
2017-10-04T04:17:48.999Z,17.03
2017-10-04T04:22:52.867Z,16.87
2017-10-04T04:27:54.831Z,16.07
2017-10-04T04:32:56.731Z,12.30
2017-10-04T04:43:34.531Z,12.60
2017-10-04T04:48:36.440Z,13.50
2017-10-04T04:53:38.869Z,15.20
2017-10-04T04:58:44.085Z,15.30
2017-10-04T05:03:46.956Z,24.70
2017-10-04T05:08:48.863Z,13.20
2017-10-04T05:13:50.707Z,13.53
2017-10-04T05:18:52.618Z,15.43
2017-10-04T05:23:54.472Z,12.30
2017-10-04T05:28:57.144Z,11.63
2017-10-04T05:33:59.000Z,14.40
2017-10-04T05:39:01.435Z,31.13
2017-10-04T05:44:03.233Z,13.87
2017-10-04T05:49:05.112Z,13.43
2017-10-04T05:54:07.379Z,15.20
2017-10-04T05:59:09.252Z,16.30
2017-10-04T06:04:11.234Z,18.07
2017-10-04T06:09:13.104Z,16.90
2017-10-04T06:14:15.626Z,13.13
2017-10-04T06:19:18.088Z,16.93
2017-10-04T06:24:19.995Z,17.90
2017-10-04T06:29:21.776Z,19.87
2017-10-04T06:34:23.501Z,12.23
2017-10-04T06:39:25.420Z,11.17
2017-10-04T06:44:27.298Z,18.53
2017-10-04T06:49:29.075Z,16.70
2017-10-04T06:54:31.423Z,15.43
2017-10-04T06:59:33.213Z,15.63
2017-10-04T07:04:35.846Z,17.23
2017-10-04T07:09:37.564Z,13.33
2017-10-04T07:14:39.945Z,18.77
2017-10-04T07:19:41.773Z,13.23
2017-10-04T07:24:44.264Z,14.57
2017-10-04T07:29:46.112Z,22.60
2017-10-04T07:34:47.888Z,18.23
2017-10-04T07:39:49.794Z,17.83
2017-10-04T07:44:52.286Z,16.97
2017-10-04T07:49:54.136Z,23.70
2017-10-04T07:54:56.041Z,17.40
2017-10-04T07:59:57.814Z,15.00
2017-10-04T08:05:00.917Z,18.73
2017-10-04T08:10:02.800Z,16.13
2017-10-04T08:15:04.649Z,17.43
2017-10-04T08:20:06.555Z,14.70
2017-10-04T08:25:08.404Z,15.90
2017-10-04T08:30:10.280Z,15.03
2017-10-04T08:35:12.572Z,22.40
2017-10-04T08:40:14.280Z,16.33
2017-10-04T08:45:16.030Z,23.87
2017-10-04T08:50:17.819Z,18.70
2017-10-04T08:55:19.667Z,23.27
2017-10-04T09:00:21.574Z,11.03
2017-10-04T09:05:35.534Z,13.30
2017-10-04T09:10:37.238Z,12.00
2017-10-04T09:15:39.986Z,12.73
2017-10-04T09:20:41.695Z,17.07
2017-10-04T09:25:43.385Z,15.27
2017-10-04T09:30:45.849Z,13.80
2017-10-04T09:35:47.626Z,11.70
2017-10-04T09:40:49.348Z,10.13
2017-10-04T09:45:51.370Z,9.57
2017-10-04T09:50:53.124Z,14.77
2017-10-04T09:55:54.896Z,9.83
2017-10-04T10:00:56.776Z,12.63
2017-10-04T10:05:58.493Z,11.60
2017-10-04T10:11:01.425Z,11.30
2017-10-04T10:16:03.144Z,13.07
2017-10-04T10:21:04.837Z,17.90
2017-10-04T10:26:06.699Z,16.80
2017-10-04T10:31:08.577Z,11.40
2017-10-04T10:36:10.888Z,9.13
2017-10-04T10:41:13.560Z,13.20
2017-10-04T10:46:16.771Z,8.47
2017-10-04T10:51:19.648Z,6.47
2017-10-04T10:56:21.957Z,5.00
2017-10-04T11:01:23.812Z,4.73
2017-10-04T11:06:25.902Z,3.67
2017-10-04T11:11:27.795Z,4.27
2017-10-04T11:16:30.090Z,2.83
2017-10-04T11:21:31.959Z,3.87
2017-10-04T11:26:33.814Z,6.77
2017-10-04T11:31:35.516Z,6.63
2017-10-04T11:36:37.365Z,7.90
2017-10-04T11:41:39.263Z,6.83
2017-10-04T11:46:41.142Z,5.07
2017-10-04T11:51:43.019Z,5.10
2017-10-04T11:56:45.234Z,12.17
2017-10-04T12:01:47.471Z,10.37
2017-10-04T12:06:49.734Z,5.13
2017-10-04T12:11:51.971Z,8.03
2017-10-04T12:16:53.812Z,6.07
2017-10-04T12:21:55.691Z,3.30
2017-10-04T12:26:57.935Z,8.63
2017-10-04T12:32:00.393Z,9.97
2017-10-04T12:37:02.783Z,4.00
2017-10-04T12:42:04.537Z,5.47
2017-10-04T12:47:06.243Z,4.70
2017-10-04T12:52:08.084Z,6.40
2017-10-04T12:57:09.985Z,6.90
2017-10-04T13:02:11.863Z,6.60
2017-10-04T13:07:14.186Z,6.43
2017-10-04T13:12:16.633Z,4.70
2017-10-04T13:17:18.520Z,9.30
2017-10-04T13:22:20.368Z,6.17
2017-10-04T13:27:22.068Z,5.23
2017-10-04T13:32:25.074Z,3.13
2017-10-04T13:37:27.383Z,9.47
2017-10-04T13:42:29.955Z,3.63
2017-10-04T13:47:31.831Z,5.20
2017-10-04T13:52:33.709Z,6.40
2017-10-04T13:57:36.606Z,4.70
2017-10-04T14:02:39.670Z,4.20
2017-10-04T14:07:42.706Z,7.70
2017-10-04T14:12:45.315Z,9.70
2017-10-04T14:17:47.512Z,6.37
2017-10-04T14:22:49.482Z,12.47
2017-10-04T14:27:51.363Z,5.10
2017-10-04T14:32:53.213Z,9.20
2017-10-04T14:37:54.914Z,5.63
2017-10-04T14:42:56.967Z,7.80
2017-10-04T14:47:59.329Z,14.40
2017-10-04T14:53:01.256Z,5.20
2017-10-04T14:58:03.459Z,7.93
2017-10-04T15:03:06.184Z,7.33
2017-10-04T15:08:08.013Z,6.00
2017-10-04T15:13:09.864Z,9.73
2017-10-04T15:18:11.872Z,6.43
2017-10-04T15:23:13.592Z,4.53
2017-10-04T15:28:16.601Z,3.07
2017-10-04T15:33:19.142Z,3.00
2017-10-04T15:38:21.655Z,7.63
2017-10-04T15:43:24.761Z,6.77
2017-10-04T15:48:26.618Z,5.43
2017-10-04T15:53:29.086Z,3.30
2017-10-04T15:58:32.113Z,5.33
2017-10-04T16:03:34.298Z,3.80
2017-10-04T16:08:36.382Z,5.63
2017-10-04T16:13:38.364Z,3.00
2017-10-04T16:18:41.323Z,4.83
2017-10-04T16:23:43.863Z,5.77
2017-10-04T16:28:45.708Z,8.70
2017-10-04T16:33:47.692Z,2.57
2017-10-04T16:38:49.444Z,5.63
2017-10-04T16:43:51.175Z,4.27
2017-10-04T16:48:55.085Z,2.90
2017-10-04T16:53:57.688Z,6.13
2017-10-04T16:58:59.560Z,3.73
2017-10-04T17:04:03.309Z,6.10
2017-10-04T17:09:08.684Z,4.57
2017-10-04T17:14:12.970Z,6.27
2017-10-04T17:19:19.227Z,8.57
2017-10-04T17:24:30.660Z,9.00
2017-10-04T17:29:35.981Z,9.57
2017-10-04T17:34:40.122Z,14.40
2017-10-04T17:39:45.519Z,6.17
2017-10-04T17:44:50.026Z,3.50
2017-10-04T17:49:52.535Z,10.30
2017-10-04T17:54:54.389Z,8.60
2017-10-04T18:00:00.133Z,9.70
2017-10-04T18:05:04.479Z,6.53
2017-10-04T18:10:08.991Z,8.57
2017-10-04T18:15:13.052Z,6.93
2017-10-04T18:20:18.513Z,10.10
2017-10-04T18:25:25.209Z,4.20
2017-10-04T18:30:31.751Z,4.50
2017-10-04T18:35:47.221Z,8.97
2017-10-04T18:40:52.547Z,7.53
2017-10-04T18:45:57.927Z,4.60
2017-10-04T18:51:04.471Z,9.20
2017-10-04T18:56:09.462Z,7.03
2017-10-04T19:01:12.830Z,10.50
2017-10-04T19:06:19.230Z,10.20
2017-10-04T19:11:21.220Z,9.20
2017-10-04T19:16:24.153Z,6.33
2017-10-04T19:21:26.000Z,9.60
2017-10-04T19:26:27.924Z,12.80
2017-10-04T19:31:31.116Z,7.03
2017-10-04T19:36:32.993Z,7.53
2017-10-04T19:41:34.844Z,9.87
2017-10-04T19:46:36.750Z,8.40
2017-10-04T19:51:38.627Z,6.40
2017-10-04T19:56:40.997Z,9.87
2017-10-04T20:01:42.973Z,13.23
2017-10-04T20:06:44.844Z,8.27
2017-10-04T20:11:46.750Z,5.80
2017-10-04T20:16:48.628Z,11.93
2017-10-04T20:21:50.476Z,7.07
2017-10-04T20:26:52.281Z,9.90
2017-10-04T20:31:54.262Z,6.90
2017-10-04T20:36:56.138Z,9.30
2017-10-04T20:41:58.015Z,10.93
2017-10-04T20:47:00.713Z,7.80
2017-10-04T20:52:03.256Z,7.40
2017-10-04T20:57:05.054Z,16.30
2017-10-04T21:02:06.857Z,6.90
2017-10-04T21:07:08.734Z,8.20
2017-10-04T21:12:10.544Z,5.83
2017-10-04T21:17:12.521Z,7.93
2017-10-04T21:22:14.803Z,5.57
2017-10-04T21:27:17.190Z,11.43
2017-10-04T21:32:19.966Z,4.60
2017-10-04T21:37:22.765Z,4.90
2017-10-04T21:42:24.743Z,7.23
2017-10-04T21:47:29.164Z,7.90
2017-10-04T21:52:30.928Z,6.00
2017-10-04T21:57:32.835Z,12.30
2017-10-04T22:02:36.759Z,6.63
2017-10-04T22:07:38.635Z,9.10
2017-10-04T22:12:40.517Z,7.10
2017-10-04T22:17:42.311Z,5.07
2017-10-04T22:22:44.817Z,7.90
2017-10-04T22:27:46.657Z,14.63
2017-10-04T22:32:48.508Z,9.00
2017-10-04T22:37:50.412Z,6.43
2017-10-04T22:42:52.204Z,9.90
2017-10-04T22:47:54.797Z,9.43
2017-10-04T22:52:57.993Z,12.20
2017-10-04T22:57:59.866Z,7.00
2017-10-04T23:03:02.756Z,7.27
2017-10-04T23:08:05.645Z,10.27
2017-10-04T23:13:07.550Z,11.20
2017-10-04T23:18:10.016Z,10.07
2017-10-04T23:23:11.816Z,7.67
2017-10-04T23:28:13.666Z,8.50
2017-10-04T23:33:15.569Z,5.47
2017-10-04T23:38:18.266Z,7.33
2017-10-04T23:43:20.064Z,6.93
2017-10-04T23:48:23.659Z,6.93
2017-10-04T23:53:25.562Z,11.90
2017-10-04T23:58:27.347Z,5.00
